sensor_id;sensor_type;location;lat;lon;timestamp;temperature;humidity
15543;DHT22;7873;52.230;12.856;2023-02-15T00:01:27;23.80;36.40
15543;DHT22;7873;52.230;12.856;2023-02-15T00:03:55;23.80;36.60
15543;DHT22;7873;52.230;12.856;2023-02-15T00:06:22;23.80;36.60
15543;DHT22;7873;52.230;12.856;2023-02-15T00:08:48;23.70;36.60
15543;DHT22;7873;52.230;12.856;2023-02-15T00:11:16;23.70;36.70
15543;DHT22;7873;52.230;12.856;2023-02-15T00:14:05;23.60;36.80
15543;DHT22;7873;52.230;12.856;2023-02-15T00:16:33;23.60;37.50
15543;DHT22;7873;52.230;12.856;2023-02-15T00:19:01;23.60;36.90
15543;DHT22;7873;52.230;12.856;2023-02-15T00:21:28;23.50;37.00
15543;DHT22;7873;52.230;12.856;2023-02-15T00:23:56;23.50;37.10
15543;DHT22;7873;52.230;12.856;2023-02-15T00:26:24;23.50;37.20
15543;DHT22;7873;52.230;12.856;2023-02-15T00:28:51;23.40;37.30
15543;DHT22;7873;52.230;12.856;2023-02-15T00:31:18;23.40;37.40
15543;DHT22;7873;52.230;12.856;2023-02-15T00:33:45;23.30;37.40
15543;DHT22;7873;52.230;12.856;2023-02-15T00:36:13;23.30;37.50
15543;DHT22;7873;52.230;12.856;2023-02-15T00:38:40;23.20;37.60
15543;DHT22;7873;52.230;12.856;2023-02-15T00:41:07;23.20;37.80
15543;DHT22;7873;52.230;12.856;2023-02-15T00:43:34;23.10;37.80
15543;DHT22;7873;52.230;12.856;2023-02-15T00:46:02;23.10;37.90
15543;DHT22;7873;52.230;12.856;2023-02-15T00:48:30;23.10;37.90
15543;DHT22;7873;52.230;12.856;2023-02-15T00:50:58;23.00;37.90
15543;DHT22;7873;52.230;12.856;2023-02-15T00:53:27;23.00;38.00
15543;DHT22;7873;52.230;12.856;2023-02-15T00:55:54;22.90;38.10
15543;DHT22;7873;52.230;12.856;2023-02-15T00:58:21;22.90;38.20
15543;DHT22;7873;52.230;12.856;2023-02-15T01:00:47;22.90;38.20
15543;DHT22;7873;52.230;12.856;2023-02-15T01:03:15;22.80;38.30
15543;DHT22;7873;52.230;12.856;2023-02-15T01:05:43;22.80;38.30
15543;DHT22;7873;52.230;12.856;2023-02-15T01:08:10;22.80;38.40
15543;DHT22;7873;52.230;12.856;2023-02-15T01:10:38;22.70;38.40
15543;DHT22;7873;52.230;12.856;2023-02-15T01:13:06;22.70;38.50
15543;DHT22;7873;52.230;12.856;2023-02-15T01:15:33;22.70;38.60
15543;DHT22;7873;52.230;12.856;2023-02-15T01:18:01;22.60;38.60
15543;DHT22;7873;52.230;12.856;2023-02-15T01:20:28;22.60;38.70
15543;DHT22;7873;52.230;12.856;2023-02-15T01:22:56;22.60;38.80
15543;DHT22;7873;52.230;12.856;2023-02-15T01:25:23;22.60;38.80
15543;DHT22;7873;52.230;12.856;2023-02-15T01:27:52;22.50;38.80
15543;DHT22;7873;52.230;12.856;2023-02-15T01:30:18;22.50;39.00
15543;DHT22;7873;52.230;12.856;2023-02-15T01:32:45;22.40;38.90
15543;DHT22;7873;52.230;12.856;2023-02-15T01:35:12;22.40;39.00
15543;DHT22;7873;52.230;12.856;2023-02-15T01:37:38;22.40;39.00
15543;DHT22;7873;52.230;12.856;2023-02-15T01:40:06;22.40;39.00
15543;DHT22;7873;52.230;12.856;2023-02-15T01:42:38;22.30;39.10
15543;DHT22;7873;52.230;12.856;2023-02-15T01:45:10;22.30;39.10
15543;DHT22;7873;52.230;12.856;2023-02-15T01:47:45;22.30;39.20
15543;DHT22;7873;52.230;12.856;2023-02-15T01:50:16;22.30;39.20
15543;DHT22;7873;52.230;12.856;2023-02-15T01:52:46;22.30;39.20
15543;DHT22;7873;52.230;12.856;2023-02-15T01:55:17;22.30;39.30
15543;DHT22;7873;52.230;12.856;2023-02-15T01:57:45;22.30;39.20
15543;DHT22;7873;52.230;12.856;2023-02-15T02:00:15;22.20;39.20
15543;DHT22;7873;52.230;12.856;2023-02-15T02:02:44;22.20;39.20
15543;DHT22;7873;52.230;12.856;2023-02-15T02:05:13;22.20;40.10
15543;DHT22;7873;52.230;12.856;2023-02-15T02:07:40;22.10;39.30
15543;DHT22;7873;52.230;12.856;2023-02-15T02:10:10;22.10;39.40
15543;DHT22;7873;52.230;12.856;2023-02-15T02:12:39;22.10;39.50
15543;DHT22;7873;52.230;12.856;2023-02-15T02:15:08;22.10;39.50
15543;DHT22;7873;52.230;12.856;2023-02-15T02:17:40;22.00;39.40
15543;DHT22;7873;52.230;12.856;2023-02-15T02:23:27;22.00;40.30
15543;DHT22;7873;52.230;12.856;2023-02-15T02:26:10;22.00;39.70
15543;DHT22;7873;52.230;12.856;2023-02-15T02:28:57;21.90;39.60
15543;DHT22;7873;52.230;12.856;2023-02-15T02:31:44;21.90;39.70
15543;DHT22;7873;52.230;12.856;2023-02-15T02:34:30;21.90;39.80
15543;DHT22;7873;52.230;12.856;2023-02-15T02:37:03;21.80;39.80
15543;DHT22;7873;52.230;12.856;2023-02-15T02:39:39;21.80;39.80
15543;DHT22;7873;52.230;12.856;2023-02-15T02:42:12;21.80;39.80
15543;DHT22;7873;52.230;12.856;2023-02-15T02:44:46;21.80;39.90
15543;DHT22;7873;52.230;12.856;2023-02-15T02:47:16;21.70;39.90
15543;DHT22;7873;52.230;12.856;2023-02-15T02:49:51;21.70;39.80
15543;DHT22;7873;52.230;12.856;2023-02-15T02:52:34;21.70;39.80
15543;DHT22;7873;52.230;12.856;2023-02-15T02:55:05;21.70;39.90
15543;DHT22;7873;52.230;12.856;2023-02-15T02:57:36;21.70;40.00
15543;DHT22;7873;52.230;12.856;2023-02-15T03:00:06;21.60;40.00
15543;DHT22;7873;52.230;12.856;2023-02-15T03:02:35;21.60;40.00
15543;DHT22;7873;52.230;12.856;2023-02-15T03:05:07;21.60;40.00
15543;DHT22;7873;52.230;12.856;2023-02-15T03:07:40;21.60;40.00
15543;DHT22;7873;52.230;12.856;2023-02-15T03:10:09;21.60;40.10
15543;DHT22;7873;52.230;12.856;2023-02-15T03:12:37;21.50;40.10
15543;DHT22;7873;52.230;12.856;2023-02-15T03:15:07;21.50;40.10
15543;DHT22;7873;52.230;12.856;2023-02-15T03:17:37;21.50;40.10
15543;DHT22;7873;52.230;12.856;2023-02-15T03:20:10;21.50;40.20
15543;DHT22;7873;52.230;12.856;2023-02-15T03:22:42;21.50;40.20
15543;DHT22;7873;52.230;12.856;2023-02-15T03:25:15;21.50;40.90
15543;DHT22;7873;52.230;12.856;2023-02-15T03:27:47;21.40;40.20
15543;DHT22;7873;52.230;12.856;2023-02-15T03:32:46;21.40;40.20
15543;DHT22;7873;52.230;12.856;2023-02-15T03:35:16;21.40;40.30
15543;DHT22;7873;52.230;12.856;2023-02-15T03:37:46;21.40;40.30
15543;DHT22;7873;52.230;12.856;2023-02-15T03:40:17;21.30;40.30
15543;DHT22;7873;52.230;12.856;2023-02-15T03:43:07;21.30;40.20
15543;DHT22;7873;52.230;12.856;2023-02-15T03:45:39;21.30;40.30
15543;DHT22;7873;52.230;12.856;2023-02-15T03:48:20;21.30;40.30
15543;DHT22;7873;52.230;12.856;2023-02-15T03:50:52;21.30;40.30
15543;DHT22;7873;52.230;12.856;2023-02-15T03:53:41;21.20;40.40
15543;DHT22;7873;52.230;12.856;2023-02-15T03:56:09;21.20;40.40
15543;DHT22;7873;52.230;12.856;2023-02-15T03:58:35;21.20;40.30
15543;DHT22;7873;52.230;12.856;2023-02-15T04:01:22;21.20;40.40
15543;DHT22;7873;52.230;12.856;2023-02-15T04:04:22;21.20;40.40
15543;DHT22;7873;52.230;12.856;2023-02-15T04:06:52;21.10;40.40
15543;DHT22;7873;52.230;12.856;2023-02-15T04:09:19;21.10;40.40
15543;DHT22;7873;52.230;12.856;2023-02-15T04:12:04;21.10;40.40
15543;DHT22;7873;52.230;12.856;2023-02-15T04:14:30;21.10;40.40
15543;DHT22;7873;52.230;12.856;2023-02-15T04:17:15;21.10;40.40
15543;DHT22;7873;52.230;12.856;2023-02-15T04:19:42;21.10;40.60
15543;DHT22;7873;52.230;12.856;2023-02-15T04:22:27;21.10;40.60
15543;DHT22;7873;52.230;12.856;2023-02-15T04:25:11;21.20;41.20
15543;DHT22;7873;52.230;12.856;2023-02-15T04:27:38;21.30;40.70
15543;DHT22;7873;52.230;12.856;2023-02-15T04:30:06;21.30;40.60
15543;DHT22;7873;52.230;12.856;2023-02-15T04:32:34;21.30;40.50
15543;DHT22;7873;52.230;12.856;2023-02-15T04:35:02;21.30;40.40
15543;DHT22;7873;52.230;12.856;2023-02-15T04:37:30;21.40;40.30
15543;DHT22;7873;52.230;12.856;2023-02-15T04:39:57;21.40;40.30
15543;DHT22;7873;52.230;12.856;2023-02-15T04:42:24;21.50;39.90
15543;DHT22;7873;52.230;12.856;2023-02-15T04:44:51;21.50;39.20
15543;DHT22;7873;52.230;12.856;2023-02-15T04:47:18;21.50;38.60
15543;DHT22;7873;52.230;12.856;2023-02-15T04:49:44;21.50;38.30
15543;DHT22;7873;52.230;12.856;2023-02-15T04:52:11;21.50;38.60
15543;DHT22;7873;52.230;12.856;2023-02-15T04:54:39;21.50;38.80
15543;DHT22;7873;52.230;12.856;2023-02-15T04:57:06;21.60;38.40
15543;DHT22;7873;52.230;12.856;2023-02-15T04:59:33;21.60;38.40
15543;DHT22;7873;52.230;12.856;2023-02-15T05:02:00;21.60;38.30
15543;DHT22;7873;52.230;12.856;2023-02-15T05:04:27;21.60;38.40
15543;DHT22;7873;52.230;12.856;2023-02-15T05:06:53;21.60;38.40
15543;DHT22;7873;52.230;12.856;2023-02-15T05:09:20;21.50;38.50
15543;DHT22;7873;52.230;12.856;2023-02-15T05:11:48;21.50;38.40
15543;DHT22;7873;52.230;12.856;2023-02-15T05:14:15;21.40;36.50
15543;DHT22;7873;52.230;12.856;2023-02-15T05:16:42;21.30;36.10
15543;DHT22;7873;52.230;12.856;2023-02-15T05:19:08;21.30;35.80
15543;DHT22;7873;52.230;12.856;2023-02-15T05:21:35;21.30;36.80
15543;DHT22;7873;52.230;12.856;2023-02-15T05:24:02;21.30;36.70
15543;DHT22;7873;52.230;12.856;2023-02-15T05:26:50;21.20;36.90
15543;DHT22;7873;52.230;12.856;2023-02-15T05:29:34;21.20;36.90
15543;DHT22;7873;52.230;12.856;2023-02-15T05:32:01;21.10;36.30
15543;DHT22;7873;52.230;12.856;2023-02-15T05:34:29;20.90;34.50
15543;DHT22;7873;52.230;12.856;2023-02-15T05:36:56;20.90;36.40
15543;DHT22;7873;52.230;12.856;2023-02-15T05:39:22;20.90;37.10
15543;DHT22;7873;52.230;12.856;2023-02-15T05:41:50;20.90;36.90
15543;DHT22;7873;52.230;12.856;2023-02-15T05:44:17;20.90;36.60
15543;DHT22;7873;52.230;12.856;2023-02-15T05:46:44;21.00;37.00
15543;DHT22;7873;52.230;12.856;2023-02-15T05:49:10;21.10;37.00
15543;DHT22;7873;52.230;12.856;2023-02-15T05:51:37;21.00;37.00
15543;DHT22;7873;52.230;12.856;2023-02-15T05:54:04;21.00;35.70
15543;DHT22;7873;52.230;12.856;2023-02-15T05:56:30;20.80;36.60
15543;DHT22;7873;52.230;12.856;2023-02-15T05:58:58;20.80;37.00
15543;DHT22;7873;52.230;12.856;2023-02-15T06:01:25;20.80;37.30
15543;DHT22;7873;52.230;12.856;2023-02-15T06:03:52;20.80;37.40
15543;DHT22;7873;52.230;12.856;2023-02-15T06:06:19;20.80;37.40
15543;DHT22;7873;52.230;12.856;2023-02-15T06:08:46;20.70;37.50
15543;DHT22;7873;52.230;12.856;2023-02-15T06:11:12;20.70;37.60
15543;DHT22;7873;52.230;12.856;2023-02-15T06:13:39;20.70;37.80
15543;DHT22;7873;52.230;12.856;2023-02-15T06:16:07;20.60;37.80
15543;DHT22;7873;52.230;12.856;2023-02-15T06:18:34;20.60;37.80
15543;DHT22;7873;52.230;12.856;2023-02-15T06:21:01;20.60;38.00
15543;DHT22;7873;52.230;12.856;2023-02-15T06:23:27;20.60;38.00
15543;DHT22;7873;52.230;12.856;2023-02-15T06:25:54;20.60;38.00
15543;DHT22;7873;52.230;12.856;2023-02-15T06:28:21;20.60;38.00
15543;DHT22;7873;52.230;12.856;2023-02-15T06:30:48;20.60;38.10
15543;DHT22;7873;52.230;12.856;2023-02-15T06:33:16;20.50;38.10
15543;DHT22;7873;52.230;12.856;2023-02-15T06:35:42;20.50;38.10
15543;DHT22;7873;52.230;12.856;2023-02-15T06:38:09;20.50;38.10
15543;DHT22;7873;52.230;12.856;2023-02-15T06:40:36;20.50;38.20
15543;DHT22;7873;52.230;12.856;2023-02-15T06:43:02;20.50;38.20
15543;DHT22;7873;52.230;12.856;2023-02-15T06:45:29;20.50;38.20
15543;DHT22;7873;52.230;12.856;2023-02-15T06:47:56;20.50;39.00
15543;DHT22;7873;52.230;12.856;2023-02-15T06:50:24;20.50;38.30
15543;DHT22;7873;52.230;12.856;2023-02-15T06:52:54;20.40;38.30
15543;DHT22;7873;52.230;12.856;2023-02-15T06:55:21;20.40;38.30
15543;DHT22;7873;52.230;12.856;2023-02-15T06:57:48;20.40;38.30
15543;DHT22;7873;52.230;12.856;2023-02-15T07:00:15;20.40;38.40
15543;DHT22;7873;52.230;12.856;2023-02-15T07:02:42;20.40;38.40
15543;DHT22;7873;52.230;12.856;2023-02-15T07:05:09;20.40;38.40
15543;DHT22;7873;52.230;12.856;2023-02-15T07:07:37;20.40;38.40
15543;DHT22;7873;52.230;12.856;2023-02-15T07:10:04;20.30;38.50
15543;DHT22;7873;52.230;12.856;2023-02-15T07:12:32;20.30;38.50
15543;DHT22;7873;52.230;12.856;2023-02-15T07:15:07;20.30;38.50
15543;DHT22;7873;52.230;12.856;2023-02-15T07:17:34;20.30;38.50
15543;DHT22;7873;52.230;12.856;2023-02-15T07:20:02;20.30;38.50
15543;DHT22;7873;52.230;12.856;2023-02-15T07:22:29;20.30;38.50
15543;DHT22;7873;52.230;12.856;2023-02-15T07:24:57;20.30;38.50
15543;DHT22;7873;52.230;12.856;2023-02-15T07:27:24;20.30;38.50
15543;DHT22;7873;52.230;12.856;2023-02-15T07:29:50;20.30;38.50
15543;DHT22;7873;52.230;12.856;2023-02-15T07:32:17;20.20;38.50
15543;DHT22;7873;52.230;12.856;2023-02-15T07:34:43;20.30;38.60
15543;DHT22;7873;52.230;12.856;2023-02-15T07:37:10;20.30;39.30
15543;DHT22;7873;52.230;12.856;2023-02-15T07:39:37;20.30;38.60
15543;DHT22;7873;52.230;12.856;2023-02-15T07:42:05;20.20;38.50
15543;DHT22;7873;52.230;12.856;2023-02-15T07:44:31;20.20;38.50
15543;DHT22;7873;52.230;12.856;2023-02-15T07:46:58;20.20;38.50
15543;DHT22;7873;52.230;12.856;2023-02-15T07:49:25;20.20;38.50
15543;DHT22;7873;52.230;12.856;2023-02-15T07:51:51;20.20;38.60
15543;DHT22;7873;52.230;12.856;2023-02-15T07:54:18;20.20;38.50
15543;DHT22;7873;52.230;12.856;2023-02-15T07:56:45;20.20;38.60
15543;DHT22;7873;52.230;12.856;2023-02-15T07:59:13;20.20;38.50
15543;DHT22;7873;52.230;12.856;2023-02-15T08:01:40;20.20;38.50
15543;DHT22;7873;52.230;12.856;2023-02-15T08:04:07;20.20;38.80
15543;DHT22;7873;52.230;12.856;2023-02-15T08:06:36;20.20;38.50
15543;DHT22;7873;52.230;12.856;2023-02-15T08:09:04;20.20;38.50
15543;DHT22;7873;52.230;12.856;2023-02-15T08:11:32;20.20;38.50
15543;DHT22;7873;52.230;12.856;2023-02-15T08:14:04;20.20;38.60
15543;DHT22;7873;52.230;12.856;2023-02-15T08:16:34;20.10;38.50
15543;DHT22;7873;52.230;12.856;2023-02-15T08:19:02;20.10;38.50
15543;DHT22;7873;52.230;12.856;2023-02-15T08:21:32;20.10;38.50
15543;DHT22;7873;52.230;12.856;2023-02-15T08:23:59;20.20;38.50
15543;DHT22;7873;52.230;12.856;2023-02-15T08:26:27;20.10;38.40
15543;DHT22;7873;52.230;12.856;2023-02-15T08:28:55;20.20;38.50
15543;DHT22;7873;52.230;12.856;2023-02-15T08:31:22;20.10;38.40
15543;DHT22;7873;52.230;12.856;2023-02-15T08:33:51;20.10;38.50
15543;DHT22;7873;52.230;12.856;2023-02-15T08:36:20;20.10;38.50
15543;DHT22;7873;52.230;12.856;2023-02-15T08:38:48;20.10;38.50
15543;DHT22;7873;52.230;12.856;2023-02-15T08:41:15;20.10;38.50
15543;DHT22;7873;52.230;12.856;2023-02-15T08:43:44;20.10;38.40
15543;DHT22;7873;52.230;12.856;2023-02-15T08:46:12;20.10;38.50
15543;DHT22;7873;52.230;12.856;2023-02-15T08:48:40;20.10;38.50
15543;DHT22;7873;52.230;12.856;2023-02-15T08:51:10;20.10;38.30
15543;DHT22;7873;52.230;12.856;2023-02-15T08:53:38;20.10;38.30
15543;DHT22;7873;52.230;12.856;2023-02-15T08:56:05;20.10;39.20
15543;DHT22;7873;52.230;12.856;2023-02-15T08:58:33;20.10;38.30
15543;DHT22;7873;52.230;12.856;2023-02-15T09:01:00;20.10;38.30
15543;DHT22;7873;52.230;12.856;2023-02-15T09:03:28;20.10;38.30
15543;DHT22;7873;52.230;12.856;2023-02-15T09:05:58;20.10;38.40
15543;DHT22;7873;52.230;12.856;2023-02-15T09:08:27;20.10;38.30
15543;DHT22;7873;52.230;12.856;2023-02-15T09:10:54;20.10;38.30
15543;DHT22;7873;52.230;12.856;2023-02-15T09:13:30;20.10;38.30
15543;DHT22;7873;52.230;12.856;2023-02-15T09:15:58;20.00;38.40
15543;DHT22;7873;52.230;12.856;2023-02-15T09:18:25;20.10;38.30
15543;DHT22;7873;52.230;12.856;2023-02-15T09:20:52;20.00;38.30
15543;DHT22;7873;52.230;12.856;2023-02-15T09:23:20;20.00;38.30
15543;DHT22;7873;52.230;12.856;2023-02-15T09:25:48;20.00;38.30
15543;DHT22;7873;52.230;12.856;2023-02-15T09:28:15;20.00;38.30
15543;DHT22;7873;52.230;12.856;2023-02-15T09:30:41;20.00;38.30
15543;DHT22;7873;52.230;12.856;2023-02-15T09:33:08;20.00;38.30
15543;DHT22;7873;52.230;12.856;2023-02-15T09:35:35;20.00;38.20
15543;DHT22;7873;52.230;12.856;2023-02-15T09:38:01;20.00;38.20
15543;DHT22;7873;52.230;12.856;2023-02-15T09:40:28;20.00;38.30
15543;DHT22;7873;52.230;12.856;2023-02-15T09:43:08;20.00;38.30
15543;DHT22;7873;52.230;12.856;2023-02-15T09:45:53;20.00;38.20
15543;DHT22;7873;52.230;12.856;2023-02-15T09:48:35;20.10;38.30
15543;DHT22;7873;52.230;12.856;2023-02-15T09:54:27;20.00;38.30
15543;DHT22;7873;52.230;12.856;2023-02-15T09:57:06;20.00;38.30
15543;DHT22;7873;52.230;12.856;2023-02-15T09:59:39;20.00;38.30
15543;DHT22;7873;52.230;12.856;2023-02-15T10:02:16;20.00;38.30
15543;DHT22;7873;52.230;12.856;2023-02-15T10:04:56;20.00;38.30
15543;DHT22;7873;52.230;12.856;2023-02-15T10:07:37;20.00;38.30
15543;DHT22;7873;52.230;12.856;2023-02-15T10:10:17;20.00;38.30
15543;DHT22;7873;52.230;12.856;2023-02-15T10:15:59;20.00;38.30
15543;DHT22;7873;52.230;12.856;2023-02-15T10:18:42;20.00;38.30
15543;DHT22;7873;52.230;12.856;2023-02-15T10:21:24;20.00;38.30
15543;DHT22;7873;52.230;12.856;2023-02-15T10:24:09;20.00;38.30
15543;DHT22;7873;52.230;12.856;2023-02-15T10:26:52;20.00;38.30
15543;DHT22;7873;52.230;12.856;2023-02-15T10:29:27;20.00;38.30
15543;DHT22;7873;52.230;12.856;2023-02-15T10:32:04;20.00;38.30
15543;DHT22;7873;52.230;12.856;2023-02-15T10:34:43;20.00;38.30
15543;DHT22;7873;52.230;12.856;2023-02-15T10:37:24;20.00;38.30
15543;DHT22;7873;52.230;12.856;2023-02-15T10:40:06;19.90;38.30
15543;DHT22;7873;52.230;12.856;2023-02-15T10:42:40;20.00;38.30
15543;DHT22;7873;52.230;12.856;2023-02-15T10:45:16;20.00;38.30
15543;DHT22;7873;52.230;12.856;2023-02-15T10:48:07;19.90;38.20
15543;DHT22;7873;52.230;12.856;2023-02-15T10:50:45;19.90;38.20
15543;DHT22;7873;52.230;12.856;2023-02-15T10:53:21;19.90;38.20
15543;DHT22;7873;52.230;12.856;2023-02-15T10:56:00;19.90;38.10
15543;DHT22;7873;52.230;12.856;2023-02-15T10:58:36;19.90;38.10
15543;DHT22;7873;52.230;12.856;2023-02-15T11:01:12;20.00;38.10
15543;DHT22;7873;52.230;12.856;2023-02-15T11:04:04;19.90;38.10
15543;DHT22;7873;52.230;12.856;2023-02-15T11:06:41;20.00;38.20
15543;DHT22;7873;52.230;12.856;2023-02-15T11:09:13;19.90;38.10
15543;DHT22;7873;52.230;12.856;2023-02-15T11:11:44;19.90;38.10
15543;DHT22;7873;52.230;12.856;2023-02-15T11:14:15;19.90;38.20
15543;DHT22;7873;52.230;12.856;2023-02-15T11:16:49;19.90;38.20
15543;DHT22;7873;52.230;12.856;2023-02-15T11:19:21;19.90;38.30
15543;DHT22;7873;52.230;12.856;2023-02-15T11:21:53;19.90;38.30
15543;DHT22;7873;52.230;12.856;2023-02-15T11:24:24;19.90;38.30
15543;DHT22;7873;52.230;12.856;2023-02-15T11:26:54;19.90;38.30
15543;DHT22;7873;52.230;12.856;2023-02-15T11:29:25;19.90;38.20
15543;DHT22;7873;52.230;12.856;2023-02-15T11:31:59;19.90;38.30
15543;DHT22;7873;52.230;12.856;2023-02-15T11:34:31;19.80;38.20
15543;DHT22;7873;52.230;12.856;2023-02-15T11:37:01;19.80;38.10
15543;DHT22;7873;52.230;12.856;2023-02-15T11:39:33;19.90;38.30
15543;DHT22;7873;52.230;12.856;2023-02-15T11:42:04;19.90;38.30
15543;DHT22;7873;52.230;12.856;2023-02-15T11:44:34;19.90;38.30
15543;DHT22;7873;52.230;12.856;2023-02-15T11:47:07;19.90;38.20
15543;DHT22;7873;52.230;12.856;2023-02-15T11:49:37;19.90;38.30
15543;DHT22;7873;52.230;12.856;2023-02-15T11:52:05;19.80;38.30
15543;DHT22;7873;52.230;12.856;2023-02-15T11:54:34;19.80;38.30
15543;DHT22;7873;52.230;12.856;2023-02-15T11:57:04;19.80;38.30
15543;DHT22;7873;52.230;12.856;2023-02-15T11:59:41;19.80;38.40
15543;DHT22;7873;52.230;12.856;2023-02-15T12:02:15;19.80;38.40
15543;DHT22;7873;52.230;12.856;2023-02-15T12:04:46;19.80;38.50
15543;DHT22;7873;52.230;12.856;2023-02-15T12:07:19;19.80;38.50
15543;DHT22;7873;52.230;12.856;2023-02-15T12:09:52;19.80;38.50
15543;DHT22;7873;52.230;12.856;2023-02-15T12:12:25;19.80;38.80
15543;DHT22;7873;52.230;12.856;2023-02-15T12:14:53;19.70;38.60
15543;DHT22;7873;52.230;12.856;2023-02-15T12:17:21;19.70;38.70
15543;DHT22;7873;52.230;12.856;2023-02-15T12:19:52;19.70;38.60
15543;DHT22;7873;52.230;12.856;2023-02-15T12:22:22;19.70;38.70
15543;DHT22;7873;52.230;12.856;2023-02-15T12:24:51;19.70;38.80
15543;DHT22;7873;52.230;12.856;2023-02-15T12:27:20;19.70;38.80
15543;DHT22;7873;52.230;12.856;2023-02-15T12:29:50;19.70;38.80
15543;DHT22;7873;52.230;12.856;2023-02-15T12:32:19;19.70;38.80
15543;DHT22;7873;52.230;12.856;2023-02-15T12:34:49;19.70;38.80
15543;DHT22;7873;52.230;12.856;2023-02-15T12:37:22;19.70;38.90
15543;DHT22;7873;52.230;12.856;2023-02-15T12:39:52;19.70;38.90
15543;DHT22;7873;52.230;12.856;2023-02-15T12:42:21;19.70;38.90
15543;DHT22;7873;52.230;12.856;2023-02-15T12:44:53;19.70;38.90
15543;DHT22;7873;52.230;12.856;2023-02-15T12:47:24;19.70;39.00
15543;DHT22;7873;52.230;12.856;2023-02-15T12:50:11;19.70;38.90
15543;DHT22;7873;52.230;12.856;2023-02-15T12:52:45;19.70;39.00
15543;DHT22;7873;52.230;12.856;2023-02-15T12:55:21;19.70;39.00
15543;DHT22;7873;52.230;12.856;2023-02-15T12:58:04;19.70;38.90
15543;DHT22;7873;52.230;12.856;2023-02-15T13:00:31;19.70;38.90
15543;DHT22;7873;52.230;12.856;2023-02-15T13:02:59;19.80;38.70
15543;DHT22;7873;52.230;12.856;2023-02-15T13:05:30;19.90;38.50
15543;DHT22;7873;52.230;12.856;2023-02-15T13:08:00;19.90;38.40
15543;DHT22;7873;52.230;12.856;2023-02-15T13:10:29;19.90;38.40
15543;DHT22;7873;52.230;12.856;2023-02-15T13:13:00;20.00;38.40
15543;DHT22;7873;52.230;12.856;2023-02-15T13:15:32;20.00;38.30
15543;DHT22;7873;52.230;12.856;2023-02-15T13:18:01;20.00;38.20
15543;DHT22;7873;52.230;12.856;2023-02-15T13:20:30;20.00;38.40
15543;DHT22;7873;52.230;12.856;2023-02-15T13:22:58;20.00;38.30
15543;DHT22;7873;52.230;12.856;2023-02-15T13:25:30;20.00;38.30
15543;DHT22;7873;52.230;12.856;2023-02-15T13:28:16;20.00;38.30
15543;DHT22;7873;52.230;12.856;2023-02-15T13:30:45;20.00;38.30
15543;DHT22;7873;52.230;12.856;2023-02-15T13:33:14;20.00;38.20
15543;DHT22;7873;52.230;12.856;2023-02-15T13:35:49;20.10;38.20
15543;DHT22;7873;52.230;12.856;2023-02-15T13:38:26;20.10;38.10
15543;DHT22;7873;52.230;12.856;2023-02-15T13:41:08;20.10;38.10
15543;DHT22;7873;52.230;12.856;2023-02-15T13:43:41;20.10;38.10
15543;DHT22;7873;52.230;12.856;2023-02-15T13:46:20;20.10;38.20
15543;DHT22;7873;52.230;12.856;2023-02-15T13:48:58;20.10;38.30
15543;DHT22;7873;52.230;12.856;2023-02-15T13:51:37;20.10;38.30
15543;DHT22;7873;52.230;12.856;2023-02-15T13:54:24;20.20;38.20
15543;DHT22;7873;52.230;12.856;2023-02-15T13:57:12;20.20;38.00
15543;DHT22;7873;52.230;12.856;2023-02-15T13:59:55;20.20;38.00
15543;DHT22;7873;52.230;12.856;2023-02-15T14:02:35;20.30;38.10
15543;DHT22;7873;52.230;12.856;2023-02-15T14:05:13;20.30;38.00
15543;DHT22;7873;52.230;12.856;2023-02-15T14:07:53;20.30;38.00
15543;DHT22;7873;52.230;12.856;2023-02-15T14:10:29;20.30;38.00
15543;DHT22;7873;52.230;12.856;2023-02-15T14:13:16;20.30;37.90
15543;DHT22;7873;52.230;12.856;2023-02-15T14:16:05;20.40;37.90
15543;DHT22;7873;52.230;12.856;2023-02-15T14:18:39;20.40;37.80
15543;DHT22;7873;52.230;12.856;2023-02-15T14:21:12;20.40;37.90
15543;DHT22;7873;52.230;12.856;2023-02-15T14:23:53;20.50;37.90
15543;DHT22;7873;52.230;12.856;2023-02-15T14:26:31;20.50;37.80
15543;DHT22;7873;52.230;12.856;2023-02-15T14:29:11;20.50;37.80
15543;DHT22;7873;52.230;12.856;2023-02-15T14:31:45;20.50;37.80
15543;DHT22;7873;52.230;12.856;2023-02-15T14:34:18;20.50;37.80
15543;DHT22;7873;52.230;12.856;2023-02-15T14:36:49;20.50;37.90
15543;DHT22;7873;52.230;12.856;2023-02-15T14:39:20;20.50;38.00
15543;DHT22;7873;52.230;12.856;2023-02-15T14:42:15;20.50;38.00
15543;DHT22;7873;52.230;12.856;2023-02-15T14:44:52;20.50;38.70
15543;DHT22;7873;52.230;12.856;2023-02-15T14:47:28;20.50;37.90
15543;DHT22;7873;52.230;12.856;2023-02-15T14:53:15;20.60;37.90
15543;DHT22;7873;52.230;12.856;2023-02-15T14:56:04;20.50;37.90
15543;DHT22;7873;52.230;12.856;2023-02-15T14:58:33;20.40;38.00
15543;DHT22;7873;52.230;12.856;2023-02-15T15:01:04;20.40;38.30
15543;DHT22;7873;52.230;12.856;2023-02-15T15:03:33;20.30;38.30
15543;DHT22;7873;52.230;12.856;2023-02-15T15:06:02;20.30;38.30
15543;DHT22;7873;52.230;12.856;2023-02-15T15:08:32;20.20;38.70
15543;DHT22;7873;52.230;12.856;2023-02-15T15:14:00;19.80;38.80
15543;DHT22;7873;52.230;12.856;2023-02-15T15:16:46;19.70;38.50
15543;DHT22;7873;52.230;12.856;2023-02-15T15:22:32;19.70;37.90
15543;DHT22;7873;52.230;12.856;2023-02-15T15:25:02;19.70;37.30
15543;DHT22;7873;52.230;12.856;2023-02-15T15:27:44;19.70;37.60
15543;DHT22;7873;52.230;12.856;2023-02-15T15:33:46;19.60;38.60
15543;DHT22;7873;52.230;12.856;2023-02-15T15:42:51;20.10;37.90
15543;DHT22;7873;52.230;12.856;2023-02-15T15:45:41;20.20;37.80
15543;DHT22;7873;52.230;12.856;2023-02-15T15:48:31;20.20;37.70
15543;DHT22;7873;52.230;12.856;2023-02-15T15:51:02;20.10;38.20
15543;DHT22;7873;52.230;12.856;2023-02-15T15:53:34;20.20;38.10
15543;DHT22;7873;52.230;12.856;2023-02-15T15:56:08;20.20;38.10
15543;DHT22;7873;52.230;12.856;2023-02-15T15:58:41;20.30;37.90
15543;DHT22;7873;52.230;12.856;2023-02-15T16:01:10;20.50;37.60
15543;DHT22;7873;52.230;12.856;2023-02-15T16:03:41;20.60;37.30
15543;DHT22;7873;52.230;12.856;2023-02-15T16:06:26;20.60;37.20
15543;DHT22;7873;52.230;12.856;2023-02-15T16:09:09;20.50;37.20
15543;DHT22;7873;52.230;12.856;2023-02-15T16:11:37;20.10;37.90
15543;DHT22;7873;52.230;12.856;2023-02-15T16:14:09;20.20;37.90
15543;DHT22;7873;52.230;12.856;2023-02-15T16:16:38;20.50;37.60
15543;DHT22;7873;52.230;12.856;2023-02-15T16:19:05;21.10;37.50
15543;DHT22;7873;52.230;12.856;2023-02-15T16:21:35;21.70;36.00
15543;DHT22;7873;52.230;12.856;2023-02-15T16:24:16;22.10;35.50
15543;DHT22;7873;52.230;12.856;2023-02-15T16:26:58;22.40;35.00
15543;DHT22;7873;52.230;12.856;2023-02-15T16:29:35;22.60;34.70